Time;durP1;ratioP1;P1;durP2;ratioP2;P2;SDS_P1;SDS_P2;PMS_P1;PMS_P2;Temp;Humidity;BMP_temperature;BMP_pressure;BME280_temperature;BME280_humidity;BME280_pressure;Samples;Min_cycle;Max_cycle;Signal;HPM_P1;HPM_P2
2021/06/22 00:00:34;;;;;;;5.90;2.90;;;14.00;99.90;;;;;;5031401;28;20041;-82
2021/06/22 00:03:01;;;;;;;4.80;2.70;;;14.00;99.90;;;;;;5033758;28;20071;-82
2021/06/22 00:05:28;;;;;;;4.78;2.70;;;14.00;99.90;;;;;;5052003;28;20033;-82
2021/06/22 00:07:56;;;;;;;5.72;2.80;;;14.00;99.90;;;;;;5051276;28;20036;-82
2021/06/22 00:10:27;;;;;;;5.60;3.20;;;14.00;99.90;;;;;;5050945;28;20389;-81
2021/06/22 00:12:54;;;;;;;5.25;2.85;;;14.00;99.90;;;;;;5052023;28;20048;-81
2021/06/22 00:15:22;;;;;;;6.78;3.53;;;13.90;99.90;;;;;;5050331;28;20025;-81
2021/06/22 00:17:48;;;;;;;5.18;2.67;;;14.00;99.90;;;;;;5051919;28;20063;-82
2021/06/22 00:20:16;;;;;;;5.22;2.28;;;14.00;99.90;;;;;;5057023;28;20040;-81
2021/06/22 00:22:43;;;;;;;4.82;2.90;;;14.10;99.90;;;;;;5070119;28;20059;-82
2021/06/22 00:25:11;;;;;;;6.55;3.00;;;14.10;99.90;;;;;;5053227;28;20041;-81
2021/06/22 00:27:37;;;;;;;5.60;3.03;;;14.10;99.90;;;;;;5052780;28;20029;-81
2021/06/22 00:30:08;;;;;;;6.43;2.97;;;14.20;99.90;;;;;;5051941;28;20503;-82
2021/06/22 00:32:34;;;;;;;6.45;2.88;;;14.10;99.90;;;;;;5069592;28;20393;-82
2021/06/22 00:34:59;;;;;;;5.75;3.08;;;14.10;99.90;;;;;;5054107;28;20047;-81
2021/06/22 00:37:25;;;;;;;4.53;2.60;;;14.10;99.90;;;;;;5072156;28;20032;-81
2021/06/22 00:39:51;;;;;;;5.47;2.58;;;14.10;99.90;;;;;;5071193;28;20488;-81
2021/06/22 00:42:18;;;;;;;6.40;2.90;;;14.10;99.90;;;;;;5053998;28;20452;-81
2021/06/22 00:44:49;;;;;;;5.47;2.75;;;14.10;99.90;;;;;;5057275;28;20388;-82
2021/06/22 00:47:16;;;;;;;6.32;3.17;;;14.00;99.90;;;;;;5058544;28;20036;-81
2021/06/22 00:49:46;;;;;;;5.60;3.10;;;14.00;99.90;;;;;;5076142;28;20473;-82
2021/06/22 00:52:12;;;;;;;4.88;2.80;;;13.90;99.90;;;;;;5058385;28;20525;-82
2021/06/22 00:54:38;;;;;;;6.30;3.30;;;13.90;99.90;;;;;;5057129;28;20128;-82
2021/06/22 00:57:08;;;;;;;6.75;3.42;;;13.80;99.90;;;;;;5041514;28;20064;-82
2021/06/22 00:59:34;;;;;;;5.65;3.00;;;13.80;99.90;;;;;;5058504;28;20493;-82
2021/06/22 01:02:04;;;;;;;5.97;3.08;;;13.70;99.90;;;;;;5058073;28;20039;-82
2021/06/22 01:04:31;;;;;;;5.47;2.83;;;13.70;99.90;;;;;;5058865;28;20389;-82
2021/06/22 01:06:57;;;;;;;5.82;2.80;;;13.70;99.90;;;;;;5057917;28;20028;-81
2021/06/22 01:09:24;;;;;;;6.10;3.03;;;13.70;99.90;;;;;;5041573;28;20059;-82
2021/06/22 01:11:51;;;;;;;6.28;3.28;;;13.70;99.90;;;;;;5076141;28;20447;-82
2021/06/22 01:14:18;;;;;;;6.70;2.70;;;13.70;99.90;;;;;;5074855;28;20071;-82
2021/06/22 01:16:44;;;;;;;3.92;2.72;;;13.70;99.90;;;;;;5081616;28;20032;-78
2021/06/22 01:19:13;;;;;;;8.10;3.47;;;13.80;99.90;;;;;;5095391;28;20036;-81
2021/06/22 01:21:39;;;;;;;5.53;3.47;;;13.90;99.90;;;;;;5058818;28;20037;-81
2021/06/22 01:24:11;;;;;;;6.43;3.35;;;13.80;99.90;;;;;;5058434;28;20120;-82
2021/06/22 01:26:40;;;;;;;6.18;3.35;;;13.80;99.90;;;;;;5075513;28;20041;-82
2021/06/22 01:29:07;;;;;;;5.05;3.28;;;13.70;99.90;;;;;;5057222;28;20063;-82
2021/06/22 01:31:34;;;;;;;4.97;2.90;;;13.70;99.90;;;;;;5057759;28;20131;-83
2021/06/22 01:34:00;;;;;;;7.07;3.60;;;13.60;99.90;;;;;;5074242;28;20028;-82
2021/06/22 01:36:29;;;;;;;5.93;3.30;;;13.60;99.90;;;;;;5057693;28;20025;-82
2021/06/22 01:38:55;;;;;;;5.75;3.22;;;13.50;99.90;;;;;;5058242;28;20106;-83
2021/06/22 01:41:21;;;;;;;5.43;3.55;;;13.50;99.90;;;;;;5057623;28;20473;-82
2021/06/22 01:43:48;;;;;;;8.68;3.25;;;13.40;99.90;;;;;;5075407;28;20051;-83
2021/06/22 01:46:13;;;;;;;4.60;3.00;;;13.40;99.90;;;;;;5057649;28;20123;-82
2021/06/22 01:48:39;;;;;;;3.80;3.13;;;13.40;99.90;;;;;;5074041;28;20120;-83
2021/06/22 01:51:05;;;;;;;6.57;3.08;;;13.40;99.90;;;;;;5056829;28;20047;-83
2021/06/22 01:53:31;;;;;;;5.22;3.08;;;13.40;99.90;;;;;;5057408;28;20115;-82
2021/06/22 01:55:57;;;;;;;6.90;3.97;;;13.40;99.90;;;;;;5057391;28;20477;-82
2021/06/22 01:58:23;;;;;;;7.93;3.90;;;13.40;99.90;;;;;;5057476;28;20071;-83
2021/06/22 02:00:53;;;;;;;5.38;3.38;;;13.30;99.90;;;;;;5040711;28;20132;-82
2021/06/22 02:03:21;;;;;;;5.75;3.15;;;13.30;99.90;;;;;;5056696;28;20036;-83
2021/06/22 02:05:53;;;;;;;5.13;3.40;;;13.30;99.90;;;;;;5075401;28;20421;-83
2021/06/22 02:08:19;;;;;;;5.38;3.28;;;13.30;99.90;;;;;;5056473;28;20385;-82
2021/06/22 02:10:46;;;;;;;4.78;2.85;;;13.20;99.90;;;;;;5040542;28;20174;-82
2021/06/22 02:13:14;;;;;;;7.47;3.80;;;13.20;99.90;;;;;;5074966;28;20040;-83
2021/06/22 02:15:42;;;;;;;5.75;3.05;;;13.30;99.90;;;;;;5074517;28;20489;-83
2021/06/22 02:18:09;;;;;;;7.43;3.50;;;13.30;99.90;;;;;;5074749;28;20397;-83
2021/06/22 02:20:36;;;;;;;7.13;3.60;;;13.30;99.90;;;;;;5074808;28;20038;-83
2021/06/22 02:23:02;;;;;;;6.60;3.10;;;13.30;99.90;;;;;;5057439;28;20455;-83
2021/06/22 02:25:28;;;;;;;8.00;3.20;;;13.30;99.90;;;;;;5073768;28;20119;-83
2021/06/22 02:28:19;;;;;;;4.50;2.90;;;13.30;99.90;;;;;;5074949;28;20033;-83
2021/06/22 02:30:46;;;;;;;4.57;2.60;;;13.30;99.90;;;;;;5064838;28;20064;-83
2021/06/22 02:33:11;;;;;;;4.60;2.53;;;13.30;99.90;;;;;;5085870;28;20086;-83
2021/06/22 02:35:38;;;;;;;4.63;3.00;;;13.30;99.90;;;;;;5074583;28;20037;-82
2021/06/22 02:38:04;;;;;;;5.60;3.03;;;13.20;99.90;;;;;;5056536;28;20039;-83
2021/06/22 02:40:30;;;;;;;5.43;2.88;;;13.20;99.90;;;;;;5055792;28;20182;-83
2021/06/22 02:42:58;;;;;;;4.03;2.80;;;13.10;99.90;;;;;;5074397;28;20062;-83
2021/06/22 02:45:24;;;;;;;5.50;3.17;;;13.10;99.90;;;;;;5056813;28;20037;-83
2021/06/22 02:47:50;;;;;;;5.63;3.47;;;13.10;99.90;;;;;;5056341;28;20028;-83
2021/06/22 02:50:18;;;;;;;6.22;3.63;;;13.00;99.90;;;;;;5074071;28;20029;-82
2021/06/22 02:52:45;;;;;;;6.60;3.45;;;13.00;99.90;;;;;;5073047;28;20047;-83
2021/06/22 02:55:18;;;;;;;6.95;3.30;;;13.00;99.90;;;;;;5073637;28;20111;-83
2021/06/22 02:57:48;;;;;;;;;;;13.00;99.90;;;;;;5056519;28;20040;-82
2021/06/22 03:00:17;;;;;;;5.40;3.13;;;12.90;99.90;;;;;;5056867;28;19908;-83
2021/06/22 03:02:43;;;;;;;5.18;3.15;;;12.90;99.90;;;;;;5056640;28;20431;-82
2021/06/22 03:05:10;;;;;;;5.25;3.28;;;12.80;99.90;;;;;;5056943;28;20048;-82
2021/06/22 03:07:36;;;;;;;5.32;3.40;;;12.80;99.90;;;;;;5080954;28;20041;-78
2021/06/22 03:10:08;;;;;;;6.72;3.40;;;12.90;99.90;;;;;;5096694;28;20025;-82
2021/06/22 03:12:34;;;;;;;6.07;2.87;;;12.90;99.90;;;;;;5075507;28;20060;-81
2021/06/22 03:15:00;;;;;;;5.03;3.28;;;12.80;99.90;;;;;;5056645;28;20025;-82
2021/06/22 03:17:26;;;;;;;7.82;3.58;;;12.80;99.90;;;;;;5056258;28;20183;-82
2021/06/22 03:19:52;;;;;;;6.22;3.40;;;12.90;99.90;;;;;;5073186;28;20098;-81
2021/06/22 03:22:18;;;;;;;4.88;3.17;;;12.90;99.90;;;;;;5056371;28;20032;-84
2021/06/22 03:24:43;;;;;;;5.15;3.35;;;12.90;99.90;;;;;;5039014;28;20044;-83
2021/06/22 03:27:10;;;;;;;7.68;3.40;;;12.90;99.90;;;;;;5073809;28;20516;-82
2021/06/22 03:29:36;;;;;;;5.30;3.30;;;12.90;99.90;;;;;;5039340;28;20045;-82
2021/06/22 03:32:03;;;;;;;6.80;3.58;;;12.90;99.90;;;;;;5074054;28;20086;-83
2021/06/22 03:34:28;;;;;;;4.88;3.00;;;12.90;99.90;;;;;;5073150;28;20047;-83
2021/06/22 03:36:54;;;;;;;6.15;3.42;;;12.90;99.90;;;;;;5071824;28;20045;-82
2021/06/22 03:39:22;;;;;;;8.43;3.30;;;12.90;99.90;;;;;;5072449;28;20036;-82
2021/06/22 03:41:49;;;;;;;5.00;2.88;;;12.90;99.90;;;;;;5073627;28;20033;-82
2021/06/22 03:44:16;;;;;;;5.40;3.15;;;12.90;99.90;;;;;;5055416;28;20445;-83
2021/06/22 03:46:42;;;;;;;7.72;3.35;;;12.90;99.90;;;;;;5073674;28;20538;-82
2021/06/22 03:49:09;;;;;;;5.50;3.17;;;12.80;99.90;;;;;;5072540;28;20040;-82
2021/06/22 03:51:35;;;;;;;7.38;3.60;;;12.80;99.90;;;;;;5074093;28;20040;-82
2021/06/22 03:54:01;;;;;;;6.63;3.55;;;12.80;99.90;;;;;;5055649;28;20078;-83
2021/06/22 03:56:29;;;;;;;6.03;3.30;;;12.80;99.90;;;;;;5055407;28;20029;-83
2021/06/22 03:58:54;;;;;;;6.57;2.92;;;12.80;99.90;;;;;;5056001;28;20388;-83
2021/06/22 04:01:20;;;;;;;5.18;3.60;;;12.80;99.90;;;;;;5073005;28;20033;-83
2021/06/22 04:03:48;;;;;;;5.65;3.33;;;12.70;99.90;;;;;;5055694;28;20033;-83
2021/06/22 04:06:15;;;;;;;5.20;3.28;;;12.80;99.90;;;;;;5039079;28;20036;-83
2021/06/22 04:08:41;;;;;;;4.35;2.97;;;12.80;99.90;;;;;;5055114;28;20055;-84
2021/06/22 04:11:07;;;;;;;5.25;2.88;;;12.90;99.90;;;;;;5072353;28;20028;-83
2021/06/22 04:13:39;;;;;;;6.05;3.40;;;12.90;99.90;;;;;;5038690;28;20552;-82
2021/06/22 04:16:07;;;;;;;5.97;3.50;;;12.90;99.90;;;;;;5073446;28;20029;-82
2021/06/22 04:18:33;;;;;;;6.07;3.20;;;12.90;99.90;;;;;;5073700;28;20520;-83
2021/06/22 04:21:00;;;;;;;5.45;3.10;;;12.90;99.90;;;;;;5072910;28;20417;-83
2021/06/22 04:23:25;;;;;;;5.05;3.08;;;12.90;99.90;;;;;;5055367;28;20032;-83
2021/06/22 04:25:51;;;;;;;5.18;3.17;;;12.90;99.90;;;;;;5054797;28;20127;-83
2021/06/22 04:31:04;;;;;;;7.35;3.88;;;12.90;99.90;;;;;;5130948;27;94836;-82
2021/06/22 04:33:30;;;;;;;6.40;4.07;;;13.00;99.90;;;;;;5096743;28;20035;-82
2021/06/22 04:35:56;;;;;;;8.52;4.05;;;13.00;99.90;;;;;;5131923;28;20114;-82
2021/06/22 04:38:22;;;;;;;6.47;4.20;;;13.00;99.90;;;;;;5132852;28;20031;-82
2021/06/22 04:40:49;;;;;;;7.07;3.95;;;13.00;99.90;;;;;;5122186;28;20027;-82
2021/06/22 04:43:19;;;;;;;9.00;4.60;;;13.10;99.90;;;;;;5130457;28;20057;-82
2021/06/22 04:45:45;;;;;;;7.95;4.00;;;13.10;99.90;;;;;;5113330;28;20027;-83
2021/06/22 04:48:11;;;;;;;7.60;4.38;;;13.20;99.90;;;;;;5132069;28;20382;-83
2021/06/22 04:50:38;;;;;;;7.65;4.32;;;13.20;99.90;;;;;;5113404;28;20028;-83
2021/06/22 04:53:08;;;;;;;8.65;4.90;;;13.20;99.90;;;;;;5113922;28;20029;-83
2021/06/22 04:55:36;;;;;;;6.45;4.15;;;13.20;99.90;;;;;;5116398;28;20020;-81
2021/06/22 04:58:04;;;;;;;5.50;3.33;;;13.30;99.90;;;;;;5153095;28;20019;-81
2021/06/22 05:00:30;;;;;;;5.75;4.25;;;13.40;99.90;;;;;;5104717;28;20085;-81
2021/06/22 05:02:56;;;;;;;8.48;5.05;;;13.40;99.90;;;;;;5113950;28;20035;-83
2021/06/22 05:05:22;;;;;;;9.35;4.65;;;13.50;99.90;;;;;;5110244;28;20035;-82
2021/06/22 05:07:49;;;;;;;8.95;4.93;;;13.60;99.90;;;;;;5111699;28;20455;-83
2021/06/22 05:10:14;;;;;;;8.02;4.85;;;13.60;99.90;;;;;;5110724;28;20031;-83
2021/06/22 05:12:43;;;;;;;7.68;4.55;;;13.70;99.90;;;;;;5111561;28;20031;-83
2021/06/22 05:15:10;;;;;;;8.05;5.13;;;13.70;99.90;;;;;;5129667;28;20476;-83
2021/06/22 05:17:39;;;;;;;8.95;6.03;;;13.80;99.90;;;;;;5129126;28;20113;-83
2021/06/22 05:20:06;;;;;;;9.10;6.15;;;13.90;99.90;;;;;;5110854;28;20036;-83
2021/06/22 05:22:33;;;;;;;9.18;6.50;;;13.90;99.90;;;;;;5128875;28;20088;-83
2021/06/22 05:24:58;;;;;;;7.93;5.68;;;14.10;99.90;;;;;;5129439;28;20114;-83
2021/06/22 05:27:29;;;;;;;12.65;6.50;;;14.10;99.90;;;;;;5112276;28;20118;-83
2021/06/22 05:30:01;;;;;;;10.02;7.00;;;14.20;99.90;;;;;;5112088;28;20114;-83
2021/06/22 05:32:28;;;;;;;11.73;7.00;;;14.20;99.90;;;;;;5130953;28;20031;-83
2021/06/22 05:34:53;;;;;;;10.10;6.95;;;14.20;99.90;;;;;;5112933;28;20016;-83
2021/06/22 05:37:20;;;;;;;10.90;7.20;;;14.30;99.90;;;;;;5111966;28;20036;-83
2021/06/22 05:39:47;;;;;;;14.50;7.90;;;14.30;99.90;;;;;;5130626;28;20378;-82
2021/06/22 05:42:18;;;;;;;11.20;7.32;;;14.30;99.90;;;;;;5099649;28;20031;-83
2021/06/22 05:44:44;;;;;;;12.05;7.22;;;14.40;99.90;;;;;;5095148;28;20353;-83
2021/06/22 05:47:10;;;;;;;14.13;7.63;;;14.40;99.90;;;;;;5097895;28;20057;-83
2021/06/22 05:49:37;;;;;;;12.68;8.00;;;14.50;99.90;;;;;;5097929;28;20016;-83
2021/06/22 05:52:03;;;;;;;10.75;7.55;;;14.50;99.90;;;;;;5116351;28;20383;-84
2021/06/22 05:54:43;;;;;;;9.27;6.45;;;14.50;99.90;;;;;;5097773;28;20055;-83
2021/06/22 05:57:09;;;;;;;10.68;7.63;;;14.50;99.90;;;;;;5098549;28;20027;-83
2021/06/22 05:59:35;;;;;;;11.80;7.75;;;14.60;99.90;;;;;;5098326;28;20447;-83
2021/06/22 06:02:02;;;;;;;13.63;7.97;;;14.60;99.90;;;;;;5098069;28;20121;-83
2021/06/22 06:04:33;;;;;;;12.95;8.15;;;14.70;99.90;;;;;;5098521;28;20368;-83
2021/06/22 06:06:59;;;;;;;10.60;7.32;;;14.70;99.90;;;;;;5098218;28;20072;-83
2021/06/22 06:09:26;;;;;;;13.00;7.50;;;14.80;99.90;;;;;;5098339;28;20028;-84
2021/06/22 06:11:53;;;;;;;12.73;7.55;;;14.90;99.90;;;;;;5081819;28;20039;-83
2021/06/22 06:14:19;;;;;;;12.00;8.25;;;15.00;99.90;;;;;;5097785;28;20024;-83
2021/06/22 06:16:46;;;;;;;11.70;7.68;;;15.10;99.90;;;;;;5116286;28;20028;-83
2021/06/22 06:19:12;;;;;;;10.75;6.78;;;15.20;99.90;;;;;;5116419;28;20035;-84
2021/06/22 06:21:39;;;;;;;11.63;8.18;;;15.30;99.90;;;;;;5098047;28;20406;-83
2021/06/22 06:24:09;;;;;;;12.40;8.00;;;15.40;99.90;;;;;;5115988;28;20145;-83
2021/06/22 06:29:54;;;;;;;11.32;8.55;;;15.50;99.90;;;;;;5033111;28;20057;-83
2021/06/22 06:32:24;;;;;;;10.88;8.25;;;15.50;99.90;;;;;;5108047;28;20495;-83
2021/06/22 06:34:52;;;;;;;11.80;8.38;;;15.50;99.90;;;;;;5098132;28;20093;-83
2021/06/22 06:37:19;;;;;;;10.02;7.78;;;15.60;99.90;;;;;;5080686;28;20043;-83
2021/06/22 06:39:46;;;;;;;10.45;8.02;;;15.60;99.90;;;;;;5080994;28;20059;-83
2021/06/22 06:42:11;;;;;;;11.13;9.00;;;15.70;99.90;;;;;;5097686;28;20114;-83
2021/06/22 06:44:45;;;;;;;12.52;8.65;;;15.70;99.90;;;;;;5115752;28;20051;-83
2021/06/22 06:47:12;;;;;;;11.60;8.80;;;15.70;99.90;;;;;;5099256;28;20024;-81
2021/06/22 06:49:39;;;;;;;10.90;8.52;;;15.80;99.90;;;;;;5107588;28;20036;-82
2021/06/22 06:52:08;;;;;;;10.75;9.20;;;15.90;99.90;;;;;;5113586;28;20062;-83
2021/06/22 06:54:35;;;;;;;13.98;9.48;;;15.90;99.90;;;;;;5098936;28;20420;-83
2021/06/22 06:57:01;;;;;;;14.73;9.85;;;15.90;99.90;;;;;;5098443;28;20038;-82
2021/06/22 06:59:31;;;;;;;14.02;9.35;;;16.00;99.90;;;;;;5097099;28;20031;-83
2021/06/22 07:01:57;;;;;;;12.57;8.40;;;16.00;99.90;;;;;;5081299;28;20028;-82
2021/06/22 07:04:25;;;;;;;11.85;9.27;;;16.00;99.90;;;;;;5097589;28;20030;-83
2021/06/22 07:06:56;;;;;;;11.00;8.40;;;16.10;99.90;;;;;;5097788;28;20495;-83
2021/06/22 07:09:24;;;;;;;15.52;8.95;;;16.20;99.90;;;;;;5116199;28;20482;-82
2021/06/22 07:11:50;;;;;;;13.40;9.68;;;16.20;99.90;;;;;;5080198;28;20127;-82
2021/06/22 07:14:16;;;;;;;13.25;8.93;;;16.20;99.90;;;;;;5097249;28;20062;-83
2021/06/22 07:16:59;;;;;;;11.43;8.90;;;16.30;99.90;;;;;;5115291;28;20028;-83
2021/06/22 07:19:28;;;;;;;11.23;8.60;;;16.30;99.90;;;;;;5115623;28;20032;-83
2021/06/22 07:21:56;;;;;;;11.55;8.82;;;16.30;99.90;;;;;;5114677;28;20054;-82
2021/06/22 07:24:26;;;;;;;13.93;8.57;;;16.30;99.90;;;;;;5096786;28;20098;-83
2021/06/22 07:27:14;;;;;;;10.75;7.97;;;16.30;99.90;;;;;;5096858;28;20068;-83
2021/06/22 07:29:42;;;;;;;9.98;7.97;;;16.40;99.90;;;;;;5093374;28;20056;-83
2021/06/22 07:32:08;;;;;;;12.65;8.80;;;16.40;99.90;;;;;;5094689;28;20432;-83
2021/06/22 07:34:36;;;;;;;13.77;10.43;;;16.30;99.90;;;;;;5092875;28;20111;-84
2021/06/22 07:37:02;;;;;;;11.88;9.48;;;16.30;99.90;;;;;;5093320;28;20491;-83
2021/06/22 07:39:28;;;;;;;11.65;9.90;;;16.20;99.90;;;;;;5092942;28;20028;-83
2021/06/22 07:41:54;;;;;;;12.43;10.30;;;16.20;99.90;;;;;;5094421;28;20027;-82
2021/06/22 07:44:27;;;;;;;17.90;10.18;;;16.20;99.90;;;;;;5094235;28;20078;-82
2021/06/22 07:46:53;;;;;;;11.02;8.68;;;16.30;99.90;;;;;;5092413;28;20024;-83
2021/06/22 07:49:18;;;;;;;12.13;9.18;;;16.30;99.90;;;;;;5092808;28;20032;-82
2021/06/22 07:51:51;;;;;;;11.88;9.50;;;16.40;99.90;;;;;;5092559;28;20069;-82
2021/06/22 07:54:19;;;;;;;15.35;9.43;;;16.50;99.90;;;;;;5092767;28;20028;-83
2021/06/22 07:56:49;;;;;;;11.32;9.13;;;16.60;99.90;;;;;;5094517;28;20023;-83
2021/06/22 07:59:18;;;;;;;10.55;8.30;;;16.60;99.90;;;;;;5093893;28;20036;-83
2021/06/22 08:01:52;;;;;;;13.02;8.70;;;16.70;99.90;;;;;;5092504;28;20024;-83
2021/06/22 08:04:19;;;;;;;11.82;8.90;;;16.80;99.90;;;;;;5092752;28;20057;-83
2021/06/22 08:06:48;;;;;;;12.35;9.52;;;16.90;99.90;;;;;;5092862;28;20705;-83
2021/06/22 08:09:26;;;;;;;11.98;9.65;;;16.90;99.90;;;;;;5094012;28;20016;-83
2021/06/22 08:11:52;;;;;;;15.13;8.90;;;16.80;99.90;;;;;;5077096;28;20032;-81
2021/06/22 08:14:21;;;;;;;10.48;8.43;;;16.90;99.90;;;;;;5091776;28;20051;-82
2021/06/22 08:16:48;;;;;;;12.23;8.93;;;17.00;99.90;;;;;;5092259;28;20031;-81
2021/06/22 08:19:17;;;;;;;12.43;9.27;;;17.00;99.90;;;;;;5091897;28;20035;-82
2021/06/22 08:21:44;;;;;;;9.48;7.97;;;17.10;99.90;;;;;;5092618;28;20032;-82
2021/06/22 08:24:11;;;;;;;12.07;8.82;;;17.20;99.90;;;;;;5092912;28;20024;-82
2021/06/22 08:26:53;;;;;;;10.88;7.63;;;17.40;99.90;;;;;;5092044;28;20035;-83
2021/06/22 08:29:19;;;;;;;12.00;8.50;;;17.50;99.90;;;;;;5076553;28;20060;-83
2021/06/22 08:31:45;;;;;;;11.65;8.25;;;17.50;99.90;;;;;;5092736;28;20031;-82
2021/06/22 08:34:11;;;;;;;10.52;8.10;;;17.70;99.90;;;;;;5093406;28;20024;-82
2021/06/22 08:36:38;;;;;;;9.70;7.97;;;17.80;99.90;;;;;;5075306;28;20028;-82
2021/06/22 08:39:19;;;;;;;9.80;8.20;;;17.90;99.90;;;;;;5093467;28;20386;-81
2021/06/22 08:41:55;;;;;;;9.52;8.02;;;18.10;99.90;;;;;;5095665;28;20092;-83
2021/06/22 08:44:26;;;;;;;9.93;7.88;;;18.20;99.90;;;;;;5094681;28;20051;-83
2021/06/22 08:46:53;;;;;;;11.27;8.15;;;18.40;99.90;;;;;;5093945;28;20034;-83
2021/06/22 08:49:22;;;;;;;12.13;6.97;;;18.50;99.90;;;;;;5093463;28;20103;-82
2021/06/22 08:52:11;;;;;;;10.13;7.43;;;18.60;99.90;;;;;;5091609;28;20044;-82
2021/06/22 08:54:39;;;;;;;12.32;7.57;;;18.70;99.90;;;;;;5092391;28;20040;-82
2021/06/22 08:57:09;;;;;;;15.05;9.00;;;18.80;99.60;;;;;;5096238;28;20035;-83
2021/06/22 08:59:43;;;;;;;10.75;8.30;;;18.70;99.30;;;;;;5107660;28;20039;-82
2021/06/22 09:02:10;;;;;;;9.63;7.18;;;18.60;99.30;;;;;;5099896;28;20105;-83
2021/06/22 09:04:37;;;;;;;8.35;6.95;;;18.60;99.30;;;;;;5091134;28;20040;-83
2021/06/22 09:07:32;;;;;;;12.65;8.13;;;18.60;99.40;;;;;;5091591;28;20027;-83
2021/06/22 09:09:59;;;;;;;9.70;6.63;;;18.60;99.10;;;;;;5091162;28;20387;-83
2021/06/22 09:12:26;;;;;;;12.73;7.75;;;18.70;99.30;;;;;;5075486;28;20044;-83
2021/06/22 09:15:20;;;;;;;10.65;7.50;;;18.80;99.00;;;;;;5092738;28;20107;-84
2021/06/22 09:17:48;;;;;;;11.13;6.97;;;19.00;98.80;;;;;;5096792;28;20154;-84
2021/06/22 09:20:31;;;;;;;10.70;6.53;;;19.10;98.80;;;;;;5094047;28;20064;-84
2021/06/22 09:23:12;;;;;;;8.40;6.90;;;19.30;98.40;;;;;;5093774;28;20047;-84
2021/06/22 09:25:39;;;;;;;10.98;7.50;;;19.60;98.40;;;;;;5094099;28;20106;-84
2021/06/22 09:28:12;;;;;;;12.88;7.97;;;19.80;98.10;;;;;;5093701;28;20030;-82
2021/06/22 09:31:23;;;;;;;10.73;6.97;;;20.00;97.70;;;;;;5093940;28;20514;-83
2021/06/22 09:33:54;;;;;;;10.23;6.38;;;20.20;97.60;;;;;;5040052;28;20156;-83
2021/06/22 09:36:38;;;;;;;;;;;;;;;;;;;;;
2021/06/22 09:39:09;;;;;;;10.98;5.78;;;21.70;96.90;;;;;;5095995;28;20024;-83
2021/06/22 09:41:40;;;;;;;8.10;5.60;;;22.80;96.40;;;;;;5097180;28;20024;-84
2021/06/22 09:44:26;;;;;;;;;;;;;;;;;;;;;
2021/06/22 09:47:01;;;;;;;7.80;5.40;;;24.10;93.80;;;;;;5033704;28;20033;-84
2021/06/22 09:49:35;;;;;;;11.23;6.03;;;24.50;93.20;;;;;;5033814;28;20044;-84
2021/06/22 09:52:07;;;;;;;6.93;5.10;;;24.80;92.70;;;;;;5095981;28;20059;-84
2021/06/22 09:54:49;;;;;;;7.72;5.57;;;24.80;92.30;;;;;;5095482;28;20024;-84
2021/06/22 09:57:20;;;;;;;8.80;5.57;;;25.00;91.70;;;;;;5095495;28;20020;-83
2021/06/22 10:00:05;;;;;;;8.45;5.30;;;24.70;90.40;;;;;;5095119;28;20043;-83
2021/06/22 10:02:58;;;;;;;8.07;5.70;;;24.10;91.10;;;;;;5093532;28;20028;-83
2021/06/22 10:05:25;;;;;;;8.85;5.50;;;24.20;90.90;;;;;;5096961;28;20020;-84
2021/06/22 10:08:04;;;;;;;9.10;6.03;;;24.60;90.00;;;;;;5096093;28;20039;-85
2021/06/22 10:10:57;;;;;;;6.97;5.15;;;24.70;89.60;;;;;;5093606;28;20166;-85
2021/06/22 10:13:52;;;;;;;;;;;;;;;;;;;;;
2021/06/22 10:16:29;;;;;;;7.32;5.53;;;25.00;85.60;;;;;;5095262;28;20020;-84
2021/06/22 10:19:10;;;;;;;6.93;5.53;;;25.20;85.60;;;;;;5095638;28;20024;-84
2021/06/22 10:21:37;;;;;;;8.00;6.13;;;25.40;85.00;;;;;;5095556;28;20086;-84
2021/06/22 10:24:03;;;;;;;6.75;5.47;;;25.60;83.20;;;;;;5093813;28;20036;-85
2021/06/22 10:26:33;;;;;;;7.93;6.07;;;25.90;82.70;;;;;;5076729;28;20031;-84
2021/06/22 10:29:02;;;;;;;7.13;5.25;;;26.10;80.80;;;;;;5096139;28;20369;-84
2021/06/22 10:31:49;;;;;;;7.88;5.60;;;26.40;80.50;;;;;;5094966;28;20059;-82
2021/06/22 10:34:24;;;;;;;7.07;5.28;;;26.80;79.80;;;;;;5088824;28;20032;-84
2021/06/22 10:36:56;;;;;;;9.27;5.45;;;27.10;78.80;;;;;;5092843;28;20479;-85
2021/06/22 10:39:37;;;;;;;7.78;5.32;;;27.40;78.10;;;;;;5091667;28;20032;-86
2021/06/22 10:42:34;;;;;;;8.18;5.07;;;27.50;75.60;;;;;;5085397;28;20111;-83
2021/06/22 10:45:11;;;;;;;7.78;5.38;;;27.10;75.30;;;;;;5090088;28;20085;-84
2021/06/22 10:47:47;;;;;;;6.47;5.22;;;26.90;75.30;;;;;;5092187;28;20032;-84
2021/06/22 10:50:22;;;;;;;9.55;5.38;;;26.90;74.90;;;;;;5091465;28;20016;-85
2021/06/22 10:52:59;;;;;;;7.97;5.43;;;26.80;74.20;;;;;;5092002;28;20055;-85
2021/06/22 10:55:31;;;;;;;6.57;4.85;;;26.70;72.50;;;;;;5089567;28;20029;-84
2021/06/22 10:58:38;;;;;;;5.75;4.68;;;26.80;73.10;;;;;;5091795;28;20454;-84
2021/06/22 11:01:16;;;;;;;7.55;4.72;;;27.20;72.40;;;;;;5091427;28;20071;-86
2021/06/22 11:03:43;;;;;;;8.85;5.03;;;27.50;71.50;;;;;;5095522;28;20153;-87
2021/06/22 11:06:22;;;;;;;5.95;4.88;;;27.20;71.60;;;;;;5109025;28;20028;-87
2021/06/22 11:08:48;;;;;;;6.90;5.53;;;27.10;72.20;;;;;;5092975;28;20463;-87
2021/06/22 11:11:24;;;;;;;9.05;5.68;;;27.40;71.10;;;;;;5091713;28;20028;-89
2021/06/22 11:14:03;;;;;;;7.72;5.20;;;27.70;71.10;;;;;;5091222;28;20027;-86
2021/06/22 11:16:39;;;;;;;6.75;5.90;;;28.00;70.00;;;;;;5090582;28;20344;-87
2021/06/22 11:19:11;;;;;;;7.47;4.65;;;28.20;68.70;;;;;;5094328;28;20024;-85
2021/06/22 11:22:31;;;;;;;;;;;;;;;;;;;;;
2021/06/22 11:25:09;;;;;;;6.68;5.15;;;28.40;67.80;;;;;;5092962;28;20020;-86
2021/06/22 11:28:08;;;;;;;7.63;5.53;;;28.50;66.80;;;;;;5092207;28;20103;-86
2021/06/22 11:30:54;;;;;;;7.75;5.97;;;28.60;66.00;;;;;;5048066;28;20047;-86
2021/06/22 11:34:17;;;;;;;;;;;;;;;;;;;;;
2021/06/22 11:37:17;;;;;;;8.35;4.90;;;28.40;65.60;;;;;;5011903;28;20032;-85
2021/06/22 11:40:22;;;;;;;;;;;;;;;;;;;;;
2021/06/22 11:43:10;;;;;;;7.80;5.00;;;29.10;63.50;;;;;;5090874;28;20026;-86
2021/06/22 11:45:51;;;;;;;;;;;;;;;;;;;;;
2021/06/22 11:48:47;;;;;;;6.40;4.78;;;29.40;64.40;;;;;;5092339;28;20488;-87
2021/06/22 11:51:16;;;;;;;4.95;4.20;;;29.60;63.00;;;;;;5089375;28;20039;-85
2021/06/22 11:53:53;;;;;;;7.47;4.68;;;29.30;62.90;;;;;;5090064;28;20345;-88
2021/06/22 11:56:40;;;;;;;5.95;4.78;;;28.60;62.00;;;;;;5090141;28;20024;-86
2021/06/22 11:59:09;;;;;;;5.40;4.15;;;28.20;62.90;;;;;;5089038;28;20054;-86
2021/06/22 12:01:50;;;;;;;6.20;4.05;;;28.60;63.30;;;;;;5088980;28;20032;-87
2021/06/22 12:04:32;;;;;;;7.45;4.10;;;28.70;62.60;;;;;;5091745;28;20040;-87
2021/06/22 12:07:02;;;;;;;6.88;4.07;;;28.20;62.90;;;;;;5090284;28;20472;-88
2021/06/22 12:09:28;;;;;;;5.32;3.50;;;28.10;63.00;;;;;;5092434;28;20086;-85
2021/06/22 12:11:59;;;;;;;5.93;3.83;;;28.30;62.40;;;;;;5090680;28;20020;-86
2021/06/22 12:14:32;;;;;;;4.20;3.10;;;28.70;62.00;;;;;;5091453;28;20044;-86
2021/06/22 12:17:19;;;;;;;5.38;3.50;;;29.00;61.80;;;;;;5070964;28;20102;-86
2021/06/22 12:19:52;;;;;;;4.60;2.92;;;28.90;61.40;;;;;;5064382;28;20040;-85
2021/06/22 12:22:27;;;;;;;5.22;3.55;;;29.00;61.60;;;;;;5083385;28;20032;-86
2021/06/22 12:25:02;;;;;;;6.15;3.55;;;29.20;61.90;;;;;;5103597;28;20008;-82
2021/06/22 12:27:52;;;;;;;4.80;3.30;;;29.60;61.30;;;;;;5105644;28;20032;-84
2021/06/22 12:30:47;;;;;;;6.53;3.00;;;29.90;60.60;;;;;;4982027;28;20921;-84
2021/06/22 12:36:44;;;;;;;5.15;3.13;;;29.80;59.60;;;;;;5056098;28;20115;-84
2021/06/22 12:39:39;;;;;;;6.05;3.00;;;30.00;59.80;;;;;;5084626;28;20043;-86
2021/06/22 12:42:21;;;;;;;5.50;3.10;;;30.10;58.70;;;;;;5084939;28;20028;-84
2021/06/22 12:44:58;;;;;;;4.85;3.08;;;29.40;59.30;;;;;;5079567;28;20040;-85
2021/06/22 12:47:26;;;;;;;4.28;2.78;;;28.50;60.40;;;;;;5085307;28;20110;-84
2021/06/22 12:50:33;;;;;;;4.70;2.78;;;28.00;61.60;;;;;;5087163;28;20028;-83
2021/06/22 12:52:59;;;;;;;4.18;2.55;;;28.10;62.00;;;;;;5089003;28;20062;-83
2021/06/22 12:55:45;;;;;;;3.80;2.42;;;28.20;62.40;;;;;;5069761;28;20043;-84
2021/06/22 12:58:14;;;;;;;3.92;2.47;;;28.40;61.50;;;;;;5071170;28;20032;-84
2021/06/22 13:00:49;;;;;;;4.38;2.30;;;28.90;61.50;;;;;;5068722;28;20464;-85
2021/06/22 13:03:18;;;;;;;3.90;2.22;;;29.00;61.00;;;;;;5070203;28;20044;-84
2021/06/22 13:05:49;;;;;;;3.28;2.03;;;28.60;61.10;;;;;;5070877;28;20032;-84
2021/06/22 13:08:27;;;;;;;6.75;2.97;;;28.00;61.30;;;;;;5074694;28;20275;-82
2021/06/22 13:10:59;;;;;;;3.88;2.30;;;27.30;62.20;;;;;;5084322;28;20036;-83
2021/06/22 13:13:30;;;;;;;4.07;2.40;;;27.40;63.40;;;;;;5070286;28;20195;-84
2021/06/22 13:16:32;;;;;;;5.20;2.30;;;28.00;62.60;;;;;;5070316;28;20063;-84
2021/06/22 13:19:20;;;;;;;3.55;1.92;;;28.60;61.70;;;;;;4974604;28;20045;-84
2021/06/22 13:21:50;;;;;;;3.38;2.20;;;29.00;61.50;;;;;;5071441;28;20466;-83
2021/06/22 13:24:43;;;;;;;;;;;;;;;;;;;;;